CMA CGM Africa Three — C6YS8 — position and weather

sailwx.info

Track history (hours):
 
Tides and Currents Weather Stations Pressure Air Temp Water Temp Dewpoint Dewpoint Depression Visibility Wind Speed Wind Dir Waves Ship Positions

CMA CGM Africa Three

Last reported at 2017-Dec-11 17:00 UTC. Time now 2017-Dec-12 19:44 UTC.
Position N 51°25' E 001°33'.

Length 228 m; draft 8.8 m.

Type: Ship (hazmat cat A). MMSI: 311044200.

Date/timePositionNaut miles runAvg speedWind from/ knotsBaromVisibWave heightAir tempDewpointWater temp
2017-Dec-11 17:00N 51°25' E 001°33'3 6.4
2017-Dec-11 16:30N 51°22' E 001°35'2 3.1
2017-Dec-11 16:00N 51°20' E 001°36'3 5.0
2017-Dec-11 15:30N 51°18' E 001°37'3 5.2
2017-Dec-11 15:00N 51°15' E 001°38'2 4.3
2017-Dec-11 14:30N 51°13' E 001°38'3 6.1
2017-Dec-11 14:00N 51°10' E 001°38'4 8.5
2017-Dec-11 13:30N 51°07' E 001°42'611.5
2017-Dec-11 13:00N 51°02' E 001°47'713.5
2017-Dec-11 12:30N 51°02' E 001°58'815.0
2017-Dec-11 12:00N 51°02' E 002°10'1 2.4
2017-Dec-11 11:30N 51°01' E 002°11'0 0.0
2017-Dec-11 10:55N 51°01' E 002°11'0 0.0
2017-Dec-11 10:28N 51°01' E 002°11'0 0.0
2017-Dec-11 09:39N 51°01' E 002°11'0 0.0
2017-Dec-11 09:21N 51°01' E 002°11'0 0.0
2017-Dec-11 09:00N 51°01' E 002°11'0 0.0
2017-Dec-11 08:24N 51°01' E 002°11'0 0.0
2017-Dec-11 07:58N 51°01' E 002°11'0 0.0
2017-Dec-11 07:30N 51°01' E 002°11'0 0.0
2017-Dec-11 06:49N 51°01' E 002°11'0 0.0
2017-Dec-11 06:14N 51°01' E 002°11'0 0.0
2017-Dec-11 05:59N 51°01' E 002°11'0 0.0
2017-Dec-11 05:30N 51°01' E 002°11'0 0.0
2017-Dec-11 05:00N 51°01' E 002°11'0 0.0
2017-Dec-11 04:31N 51°01' E 002°11'0 0.0
2017-Dec-11 03:55N 51°01' E 002°11'0 0.0
2017-Dec-11 03:25N 51°01' E 002°11'0 0.0
2017-Dec-11 02:52N 51°01' E 002°11'0 0.0
2017-Dec-11 02:25N 51°01' E 002°11'0 0.0
2017-Dec-11 01:22N 51°01' E 002°11'0 0.0
2017-Dec-11 00:52N 51°01' E 002°11'0 0.0
2017-Dec-11 00:22N 51°01' E 002°11'0 0.0
2017-Dec-10 23:57N 51°01' E 002°11'0 0.0
2017-Dec-10 23:24N 51°01' E 002°11'0 0.0
2017-Dec-10 23:00N 51°01' E 002°11'0 0.0
2017-Dec-10 22:31N 51°01' E 002°11'0 0.0
2017-Dec-10 21:58N 51°01' E 002°11'0 0.5
2017-Dec-10 21:30N 51°01' E 002°11'3 6.6
2017-Dec-10 21:00N 51°03' E 002°07'815.5
2017-Dec-10 20:30N 51°03' E 001°54'510.6
2017-Dec-10 20:00N 51°02' E 001°46'4 8.1
2017-Dec-10 19:30N 51°00' E 001°40'612.7
2017-Dec-10 19:00N 50°56' E 001°33'2712.8
2017-Dec-10 16:54N 50°33' E 001°09'512.4
2017-Dec-10 16:29N 50°30' E 001°02'713.2
2017-Dec-10 15:58N 50°28' E 000°53'613.5
2017-Dec-10 15:30N 50°26' E 000°43'713.5
2017-Dec-10 14:57N 50°24' E 000°32'613.7
2017-Dec-10 14:30N 50°22' E 000°23'815.1
2017-Dec-10 14:00N 50°20' E 000°12'815.9
2017-Dec-10 13:30N 50°18' W 000°01'815.9
2017-Dec-10 13:00N 50°16' W 000°13'1016.2
2017-Dec-10 12:24N 50°14' W 000°28'615.9
2017-Dec-10 12:01N 50°12' W 000°37'816.1
2017-Dec-10 11:30N 50°10' W 000°49'3515.9
2017-Dec-10 09:18N 50°01' W 001°42'614.6
2017-Dec-10 08:54N 49°60' W 001°51'614.2
2017-Dec-10 08:30N 49°58' W 001°59'1313.6
2017-Dec-10 07:34N 49°55' W 002°19'313.1
2017-Dec-10 07:22N 49°55' W 002°23'513.1
2017-Dec-10 06:59N 49°53' W 002°30'713.6
2017-Dec-10 06:29N 49°51' W 002°40'713.7
2017-Dec-10 06:00N 49°49' W 002°50'1013.5
2017-Dec-10 05:16N 49°44' W 003°03'513.6
2017-Dec-10 04:55N 49°42' W 003°09'7514.3
2017-Dec-09 23:42N 49°04' W 004°49'414.6
2017-Dec-09 23:27N 49°02' W 004°54'714.9
2017-Dec-09 22:58N 48°59' W 005°03'715.1
2017-Dec-09 22:30N 48°55' W 005°12'815.3
2017-Dec-09 22:00N 48°52' W 005°22'815.5
2017-Dec-09 21:30N 48°48' W 005°33'1315.1
2017-Dec-09 20:41N 48°38' W 005°44'415.5
2017-Dec-09 20:26N 48°34' W 005°46'1715.6
2017-Dec-09 19:20N 48°19' W 005°58'56019.6
2017-Dec-08 14:42N 39°24' W 009°50'419.6
2017-Dec-08 14:30N 39°20' W 009°50'1019.7
2017-Dec-08 14:01N 39°10' W 009°51'1019.9
2017-Dec-08 13:31N 39°00' W 009°52'1019.9
2017-Dec-08 13:01N 38°50' W 009°52'1020.1
2017-Dec-08 12:31N 38°41' W 009°49'1020.0
2017-Dec-08 12:01N 38°31' W 009°47'1020.1
2017-Dec-08 11:31N 38°21' W 009°44'1020.3
2017-Dec-08 11:00N 38°11' W 009°41'1020.5
2017-Dec-08 10:31N 38°01' W 009°38'1020.5
2017-Dec-08 10:00N 37°51' W 009°36'1020.4
2017-Dec-08 09:31N 37°41' W 009°33'2520.2
2017-Dec-08 08:16N 37°17' W 009°25'520.6
2017-Dec-08 08:01N 37°12' W 009°24'1020.4
2017-Dec-08 07:31N 37°02' W 009°21'1120.7
2017-Dec-08 06:59N 36°51' W 009°17'1120.1
2017-Dec-08 06:27N 36°44' W 009°07'1220.2
2017-Dec-08 05:51N 36°41' W 008°53'1120.6
2017-Dec-08 05:18N 36°37' W 008°39'620.5
2017-Dec-08 05:00N 36°35' W 008°32'  
2017-Dec-02 19:22N 10°05' W 017°05'  
Track history (hours):
 
Tides and Currents Weather Stations Pressure Air Temp Water Temp Dewpoint Dewpoint Depression Visibility Wind Speed Wind Dir Waves Ship Positions

CMA CGM Africa Three

Last reported at 2017-Dec-11 17:00 UTC. Time now 2017-Dec-12 19:44 UTC.
Position N 51°25' E 001°33'.

Length 228 m; draft 8.8 m.

Type: Ship (hazmat cat A). MMSI: 311044200.

Date/timePositionNaut miles runAvg speedWind from/ knotsBaromVisibWave heightAir tempDewpointWater temp
2017-Dec-11 17:00N 51°25' E 001°33'3 6.4
2017-Dec-11 16:30N 51°22' E 001°35'2 3.1
2017-Dec-11 16:00N 51°20' E 001°36'3 5.0
2017-Dec-11 15:30N 51°18' E 001°37'3 5.2
2017-Dec-11 15:00N 51°15' E 001°38'2 4.3
2017-Dec-11 14:30N 51°13' E 001°38'3 6.1
2017-Dec-11 14:00N 51°10' E 001°38'4 8.5
2017-Dec-11 13:30N 51°07' E 001°42'611.5
2017-Dec-11 13:00N 51°02' E 001°47'713.5
2017-Dec-11 12:30N 51°02' E 001°58'815.0
2017-Dec-11 12:00N 51°02' E 002°10'1 2.4
2017-Dec-11 11:30N 51°01' E 002°11'0 0.0
2017-Dec-11 10:55N 51°01' E 002°11'0 0.0
2017-Dec-11 10:28N 51°01' E 002°11'0 0.0
2017-Dec-11 09:39N 51°01' E 002°11'0 0.0
2017-Dec-11 09:21N 51°01' E 002°11'0 0.0
2017-Dec-11 09:00N 51°01' E 002°11'0 0.0
2017-Dec-11 08:24N 51°01' E 002°11'0 0.0
2017-Dec-11 07:58N 51°01' E 002°11'0 0.0
2017-Dec-11 07:30N 51°01' E 002°11'0 0.0
2017-Dec-11 06:49N 51°01' E 002°11'0 0.0
2017-Dec-11 06:14N 51°01' E 002°11'0 0.0
2017-Dec-11 05:59N 51°01' E 002°11'0 0.0
2017-Dec-11 05:30N 51°01' E 002°11'0 0.0
2017-Dec-11 05:00N 51°01' E 002°11'0 0.0
2017-Dec-11 04:31N 51°01' E 002°11'0 0.0
2017-Dec-11 03:55N 51°01' E 002°11'0 0.0
2017-Dec-11 03:25N 51°01' E 002°11'0 0.0
2017-Dec-11 02:52N 51°01' E 002°11'0 0.0
2017-Dec-11 02:25N 51°01' E 002°11'0 0.0
2017-Dec-11 01:22N 51°01' E 002°11'0 0.0
2017-Dec-11 00:52N 51°01' E 002°11'0 0.0
2017-Dec-11 00:22N 51°01' E 002°11'0 0.0
2017-Dec-10 23:57N 51°01' E 002°11'0 0.0
2017-Dec-10 23:24N 51°01' E 002°11'0 0.0
2017-Dec-10 23:00N 51°01' E 002°11'0 0.0
2017-Dec-10 22:31N 51°01' E 002°11'0 0.0
2017-Dec-10 21:58N 51°01' E 002°11'0 0.5
2017-Dec-10 21:30N 51°01' E 002°11'3 6.6
2017-Dec-10 21:00N 51°03' E 002°07'815.5
2017-Dec-10 20:30N 51°03' E 001°54'510.6
2017-Dec-10 20:00N 51°02' E 001°46'4 8.1
2017-Dec-10 19:30N 51°00' E 001°40'612.7
2017-Dec-10 19:00N 50°56' E 001°33'2712.8
2017-Dec-10 16:54N 50°33' E 001°09'512.4
2017-Dec-10 16:29N 50°30' E 001°02'713.2
2017-Dec-10 15:58N 50°28' E 000°53'613.5
2017-Dec-10 15:30N 50°26' E 000°43'713.5
2017-Dec-10 14:57N 50°24' E 000°32'613.7
2017-Dec-10 14:30N 50°22' E 000°23'815.1
2017-Dec-10 14:00N 50°20' E 000°12'815.9
2017-Dec-10 13:30N 50°18' W 000°01'815.9
2017-Dec-10 13:00N 50°16' W 000°13'1016.2
2017-Dec-10 12:24N 50°14' W 000°28'615.9
2017-Dec-10 12:01N 50°12' W 000°37'816.1
2017-Dec-10 11:30N 50°10' W 000°49'3515.9
2017-Dec-10 09:18N 50°01' W 001°42'614.6
2017-Dec-10 08:54N 49°60' W 001°51'614.2
2017-Dec-10 08:30N 49°58' W 001°59'1313.6
2017-Dec-10 07:34N 49°55' W 002°19'313.1
2017-Dec-10 07:22N 49°55' W 002°23'513.1
2017-Dec-10 06:59N 49°53' W 002°30'713.6
2017-Dec-10 06:29N 49°51' W 002°40'713.7
2017-Dec-10 06:00N 49°49' W 002°50'1013.5
2017-Dec-10 05:16N 49°44' W 003°03'513.6
2017-Dec-10 04:55N 49°42' W 003°09'7514.3
2017-Dec-09 23:42N 49°04' W 004°49'414.6
2017-Dec-09 23:27N 49°02' W 004°54'714.9
2017-Dec-09 22:58N 48°59' W 005°03'715.1
2017-Dec-09 22:30N 48°55' W 005°12'815.3
2017-Dec-09 22:00N 48°52' W 005°22'815.5
2017-Dec-09 21:30N 48°48' W 005°33'1315.1
2017-Dec-09 20:41N 48°38' W 005°44'415.5
2017-Dec-09 20:26N 48°34' W 005°46'1715.6
2017-Dec-09 19:20N 48°19' W 005°58'56019.6
2017-Dec-08 14:42N 39°24' W 009°50'419.6
2017-Dec-08 14:30N 39°20' W 009°50'1019.7
2017-Dec-08 14:01N 39°10' W 009°51'1019.9
2017-Dec-08 13:31N 39°00' W 009°52'1019.9
2017-Dec-08 13:01N 38°50' W 009°52'1020.1
2017-Dec-08 12:31N 38°41' W 009°49'1020.0
2017-Dec-08 12:01N 38°31' W 009°47'1020.1
2017-Dec-08 11:31N 38°21' W 009°44'1020.3
2017-Dec-08 11:00N 38°11' W 009°41'1020.5
2017-Dec-08 10:31N 38°01' W 009°38'1020.5
2017-Dec-08 10:00N 37°51' W 009°36'1020.4
2017-Dec-08 09:31N 37°41' W 009°33'2520.2
2017-Dec-08 08:16N 37°17' W 009°25'520.6
2017-Dec-08 08:01N 37°12' W 009°24'1020.4
2017-Dec-08 07:31N 37°02' W 009°21'1120.7
2017-Dec-08 06:59N 36°51' W 009°17'1120.1
2017-Dec-08 06:27N 36°44' W 009°07'1220.2
2017-Dec-08 05:51N 36°41' W 008°53'1120.6
2017-Dec-08 05:18N 36°37' W 008°39'620.5
2017-Dec-08 05:00N 36°35' W 008°32'  
2017-Dec-02 19:22N 10°05' W 017°05'  

Dump ship's entire track history